Time;durP1;ratioP1;P1;durP2;ratioP2;P2;SDS_P1;SDS_P2;PMS_P1;PMS_P2;Temp;Humidity;BMP_temperature;BMP_pressure;BME280_temperature;BME280_humidity;BME280_pressure;Samples;Min_cycle;Max_cycle;Signal;HPM_P1;HPM_P2
2021/01/26 00:01:03;;;;;;;12.40;8.83;;;;;;;5.81;93.26;98023.34;1832590;78;21513;-74
2021/01/26 00:03:31;;;;;;;13.68;9.13;;;;;;;5.75;93.21;98027.14;1823542;78;21199;-75
2021/01/26 00:05:59;;;;;;;12.70;8.70;;;;;;;5.70;93.19;98019.83;1822066;78;21124;-74
2021/01/26 00:08:26;;;;;;;11.68;8.28;;;;;;;5.67;93.21;98023.83;1805408;77;21368;-77
2021/01/26 00:10:54;;;;;;;12.23;8.58;;;;;;;5.67;93.23;98021.72;1804358;78;22418;-76
2021/01/26 00:13:22;;;;;;;13.78;8.65;;;;;;;5.64;93.21;98013.27;1837840;77;21536;-74
2021/01/26 00:15:50;;;;;;;12.18;8.28;;;;;;;5.61;93.20;98017.81;1810677;77;21143;-75
2021/01/26 00:18:18;;;;;;;11.40;8.08;;;;;;;5.59;93.21;98015.19;1846830;77;21155;-74
2021/01/26 00:20:48;;;;;;;10.32;7.65;;;;;;;5.58;93.26;98010.44;1846494;77;21234;-76
2021/01/26 00:23:15;;;;;;;11.73;8.33;;;;;;;5.56;93.29;98009.14;1846161;77;21282;-75
2021/01/26 00:25:43;;;;;;;11.50;8.10;;;;;;;5.55;93.31;98007.58;1841585;77;21623;-75
2021/01/26 00:28:13;;;;;;;10.48;7.85;;;;;;;5.54;93.33;98003.36;1807525;79;21267;-76
2021/01/26 00:30:41;;;;;;;11.08;7.83;;;;;;;5.52;93.36;98002.84;1809451;77;21220;-75
2021/01/26 00:33:14;;;;;;;11.70;7.80;;;;;;;5.51;93.41;97999.42;1817266;77;21382;-73
2021/01/26 00:35:52;;;;;;;9.67;7.03;;;;;;;5.54;93.43;97988.80;1904553;73;23267;-75
2021/01/26 00:38:20;;;;;;;12.63;7.83;;;;;;;5.48;93.46;97993.38;1881233;74;21073;-76
2021/01/26 00:40:48;;;;;;;10.82;7.25;;;;;;;5.47;93.50;97995.78;1869072;74;21323;-74
2021/01/26 00:43:15;;;;;;;9.68;7.37;;;;;;;5.47;93.53;97985.19;1866999;74;21173;-74
2021/01/26 00:45:43;;;;;;;9.25;6.75;;;;;;;5.49;93.55;97985.67;1883471;75;21149;-75
2021/01/26 00:48:11;;;;;;;10.85;7.55;;;;;;;5.49;93.55;97986.99;1867617;75;21090;-75
2021/01/26 00:50:39;;;;;;;11.28;6.95;;;;;;;5.50;93.55;97994.42;1846717;77;21166;-75
2021/01/26 00:53:07;;;;;;;9.03;6.22;;;;;;;5.51;93.59;97990.16;1816085;77;21988;-74
2021/01/26 00:55:47;;;;;;;9.63;6.43;;;;;;;5.58;93.59;97997.73;1833260;77;23346;-75
2021/01/26 00:58:15;;;;;;;9.40;6.67;;;;;;;5.54;93.60;98009.98;1816971;78;21572;-74
2021/01/26 01:00:44;;;;;;;9.25;6.78;;;;;;;5.59;93.70;98016.00;1850171;77;21772;-74
2021/01/26 01:03:15;;;;;;;7.87;4.90;;;;;;;5.68;93.72;98017.99;1823615;77;21222;-73
2021/01/26 01:05:44;;;;;;;5.20;3.65;;;;;;;5.72;93.58;98025.61;1816170;78;21170;-74
2021/01/26 01:08:11;;;;;;;4.50;3.27;;;;;;;5.68;93.28;98029.37;1832382;78;21147;-74
2021/01/26 01:10:39;;;;;;;4.28;3.02;;;;;;;5.61;92.95;98043.51;1815354;78;21488;-74
2021/01/26 01:13:10;;;;;;;3.40;2.70;;;;;;;5.53;92.57;98042.84;1823796;78;21781;-75
2021/01/26 01:15:39;;;;;;;3.25;2.35;;;;;;;5.36;91.84;98031.38;1818058;78;21195;-73
2021/01/26 01:18:06;;;;;;;3.65;2.60;;;;;;;5.16;91.09;98031.88;1828414;78;21132;-72
2021/01/26 01:20:34;;;;;;;3.47;2.70;;;;;;;4.91;90.62;98040.91;1811071;78;21155;-74
2021/01/26 01:23:02;;;;;;;3.10;2.30;;;;;;;4.76;90.47;98049.00;1828823;78;21171;-73
2021/01/26 01:25:30;;;;;;;3.60;2.22;;;;;;;4.62;90.31;98053.38;1823733;78;21193;-74
2021/01/26 01:27:58;;;;;;;3.62;2.20;;;;;;;4.46;90.18;98066.72;1822671;78;21199;-75
2021/01/26 01:30:30;;;;;;;3.55;1.87;;;;;;;4.33;89.57;98063.40;1836776;78;21589;-74
2021/01/26 01:32:58;;;;;;;2.42;1.32;;;;;;;4.13;89.09;98074.91;1835304;78;21178;-74
2021/01/26 01:35:27;;;;;;;1.62;1.10;;;;;;;3.92;88.27;98104.64;1819083;78;21115;-74
2021/01/26 01:37:55;;;;;;;2.02;1.20;;;;;;;3.66;87.59;98113.77;1829214;78;21655;-74
2021/01/26 01:40:27;;;;;;;2.05;1.17;;;;;;;3.37;86.78;98122.85;1820462;78;21151;-74
2021/01/26 01:42:54;;;;;;;;;;;;;;;3.14;86.68;98116.33;1829287;78;21147;-75
2021/01/26 01:45:23;;;;;;;2.20;1.12;;;;;;;2.92;86.14;98135.87;1822951;78;20612;-73
2021/01/26 01:47:55;;;;;;;1.90;1.20;;;;;;;2.72;85.79;98170.95;1822478;78;21094;-71
2021/01/26 01:50:29;;;;;;;1.67;1.22;;;;;;;2.55;85.88;98181.75;1823392;77;22271;-74
2021/01/26 01:53:01;;;;;;;2.35;1.25;;;;;;;2.41;85.61;98195.72;1824965;78;21192;-73
2021/01/26 01:55:33;;;;;;;1.90;1.42;;;;;;;2.32;85.51;98212.55;1813843;78;21140;-73
2021/01/26 01:58:15;;;;;;;3.10;1.57;;;;;;;2.22;85.40;98218.58;1820931;77;21144;-73
2021/01/26 02:00:43;;;;;;;2.02;1.37;;;;;;;2.16;85.69;98220.14;1818381;77;21623;-72
2021/01/26 02:03:25;;;;;;;2.00;1.35;;;;;;;2.11;85.88;98232.25;1798817;78;21195;-73
2021/01/26 02:05:55;;;;;;;2.27;1.55;;;;;;;2.06;86.12;98219.58;1815119;78;21229;-74
2021/01/26 02:08:37;;;;;;;2.00;1.30;;;;;;;2.05;86.36;98229.86;1791374;78;21128;-74
2021/01/26 02:11:05;;;;;;;2.65;1.55;;;;;;;2.02;86.49;98249.59;1818806;78;21159;-73
2021/01/26 02:13:32;;;;;;;2.10;1.40;;;;;;;1.97;86.52;98257.45;1812768;78;21187;-73
2021/01/26 02:16:02;;;;;;;1.95;1.22;;;;;;;1.97;86.79;98267.98;1817555;77;21391;-73
2021/01/26 02:18:44;;;;;;;2.37;1.45;;;;;;;1.97;87.07;98267.20;1822238;78;21207;-75
2021/01/26 02:21:23;;;;;;;3.02;1.72;;;;;;;1.92;87.13;98294.30;1822557;78;21270;-73
2021/01/26 02:24:29;;;;;;;3.00;1.92;;;;;;;1.88;87.24;98293.23;1820416;77;22560;-74
2021/01/26 02:27:25;;;;;;;2.98;2.00;;;;;;;1.82;87.46;98295.56;1812442;77;21231;-74
2021/01/26 02:30:25;;;;;;;3.00;1.92;;;;;;;1.73;87.60;98302.35;1802511;78;22350;-74
2021/01/26 02:33:23;;;;;;;3.80;2.25;;;;;;;1.69;87.82;98311.81;1812262;77;21152;-73
2021/01/26 02:36:12;;;;;;;3.30;2.20;;;;;;;1.62;87.74;98322.55;1833123;77;21148;-73
2021/01/26 02:39:28;;;;;;;3.85;2.50;;;;;;;1.56;87.68;98324.87;1789875;78;21164;-74
2021/01/26 02:42:38;;;;;;;4.92;3.15;;;;;;;1.46;87.63;98332.17;1810859;78;21199;-74
2021/01/26 02:45:47;;;;;;;4.35;2.50;;;;;;;1.40;87.60;98336.59;1819214;78;21859;-72
2021/01/26 02:48:39;;;;;;;4.75;3.20;;;;;;;1.36;87.78;98354.45;1828472;78;21165;-73
2021/01/26 02:51:23;;;;;;;4.58;3.10;;;;;;;1.33;87.75;98357.05;1817054;78;21153;-72
2021/01/26 02:54:09;;;;;;;4.50;3.27;;;;;;;1.32;87.79;98354.69;1794444;78;21143;-74
2021/01/26 02:57:11;;;;;;;5.40;3.42;;;;;;;1.28;87.71;98369.36;1821525;78;21171;-74
2021/01/26 02:59:50;;;;;;;5.10;4.10;;;;;;;1.24;87.76;98359.08;1798168;78;21381;-73
2021/01/26 03:02:51;;;;;;;6.37;4.50;;;;;;;1.17;87.72;98369.80;1856103;77;21179;-73
2021/01/26 03:05:25;;;;;;;6.33;4.15;;;;;;;1.11;87.82;98363.69;1802445;77;21250;-73
2021/01/26 03:07:57;;;;;;;6.78;4.83;;;;;;;1.08;87.94;98380.48;1815205;77;21253;-74
2021/01/26 03:10:33;;;;;;;6.30;4.60;;;;;;;1.04;87.94;98368.36;1815682;77;21199;-73
2021/01/26 03:13:03;;;;;;;7.97;5.17;;;;;;;1.00;87.96;98379.10;1814033;77;21399;-74
2021/01/26 03:15:39;;;;;;;8.65;6.17;;;;;;;1.00;87.72;98373.05;1810844;78;21141;-73
2021/01/26 03:18:13;;;;;;;9.80;6.17;;;;;;;1.02;87.45;98364.38;1815722;77;21176;-73
2021/01/26 03:20:47;;;;;;;8.25;6.20;;;;;;;1.07;87.22;98390.21;1843123;77;21172;-74
2021/01/26 03:23:28;;;;;;;8.03;5.53;;;;;;;1.08;86.97;98402.30;1841398;77;21171;-74
2021/01/26 03:25:56;;;;;;;8.00;5.87;;;;;;;1.11;86.94;98391.30;1804410;79;22706;-72
2021/01/26 03:28:24;;;;;;;9.98;6.80;;;;;;;1.15;85.96;98405.55;1810619;78;21058;-72
2021/01/26 03:30:53;;;;;;;9.95;6.50;;;;;;;1.23;85.85;98400.89;1808788;78;21116;-73
2021/01/26 03:33:37;;;;;;;10.80;7.42;;;;;;;1.26;85.41;98403.02;1807399;78;21196;-73
2021/01/26 03:36:06;;;;;;;10.05;6.10;;;;;;;1.28;84.96;98404.86;1809316;78;21179;-73
2021/01/26 03:38:34;;;;;;;9.35;6.75;;;;;;;1.29;84.84;98397.27;1805028;78;21369;-73
2021/01/26 03:41:05;;;;;;;10.43;7.08;;;;;;;1.31;84.53;98415.67;1807057;78;21215;-73
2021/01/26 03:43:32;;;;;;;8.65;5.83;;;;;;;1.31;84.43;98412.25;1808175;78;21195;-73
2021/01/26 03:46:41;;;;;;;8.70;6.58;;;;;;;1.31;83.96;98416.99;1807703;78;21769;-72
2021/01/26 03:49:47;;;;;;;10.55;6.70;;;;;;;1.33;83.85;98432.54;1806760;78;21187;-74
2021/01/26 03:52:29;;;;;;;9.80;7.17;;;;;;;1.33;83.30;98427.28;1807066;78;21363;-74
2021/01/26 03:55:21;;;;;;;10.88;7.92;;;;;;;1.34;83.40;98439.37;1809727;78;21212;-73
2021/01/26 03:57:57;;;;;;;10.40;7.00;;;;;;;1.34;83.10;98434.12;1804996;77;24139;-72
2021/01/26 04:00:55;;;;;;;12.35;8.30;;;;;;;1.33;82.87;98418.08;1810696;78;21514;-74
2021/01/26 04:04:11;;;;;;;11.80;8.23;;;;;;;1.32;82.60;98434.38;1804346;78;21100;-74
2021/01/26 04:06:52;;;;;;;13.22;9.55;;;;;;;1.33;82.54;98437.80;1817248;78;21919;-73
2021/01/26 04:09:23;;;;;;;11.53;7.92;;;;;;;1.33;82.34;98457.00;1810685;78;21190;-74
2021/01/26 04:12:15;;;;;;;12.47;8.85;;;;;;;1.33;82.17;98449.63;1821219;78;21148;-72
2021/01/26 04:15:05;;;;;;;12.47;9.05;;;;;;;1.33;81.71;98456.20;1798872;78;21219;-73
2021/01/26 04:17:36;;;;;;;13.15;8.55;;;;;;;1.34;81.67;98466.99;1819101;78;21175;-73
2021/01/26 04:20:14;;;;;;;13.20;9.38;;;;;;;1.34;81.57;98467.78;1811599;78;21373;-74
2021/01/26 04:22:41;;;;;;;12.68;9.23;;;;;;;1.35;81.57;98472.02;1817194;78;21165;-74
2021/01/26 04:25:41;;;;;;;14.65;8.70;;;;;;;1.35;81.02;98489.12;1810772;78;21180;-73
2021/01/26 04:28:18;;;;;;;13.58;9.13;;;;;;;1.35;80.65;98485.17;1783720;78;21180;-73
2021/01/26 04:30:46;;;;;;;14.47;9.70;;;;;;;1.36;80.59;98485.44;1811577;78;21033;-74
2021/01/26 04:33:15;;;;;;;13.45;9.05;;;;;;;1.35;79.87;98498.33;1801646;78;21001;-73
2021/01/26 04:35:42;;;;;;;12.20;8.40;;;;;;;1.37;80.02;98496.75;1816873;78;21195;-73
2021/01/26 04:38:10;;;;;;;13.03;9.43;;;;;;;1.39;79.62;98506.52;1808845;78;21140;-73
2021/01/26 04:40:37;;;;;;;13.32;9.50;;;;;;;1.39;79.22;98510.46;1811410;78;21385;-73
2021/01/26 04:43:50;;;;;;;11.60;8.10;;;;;;;1.40;79.16;98517.30;1816813;78;21188;-72
2021/01/26 04:46:35;;;;;;;12.98;8.90;;;;;;;1.41;79.01;98520.19;1814364;78;22311;-72
2021/01/26 04:49:40;;;;;;;12.73;8.65;;;;;;;1.44;78.93;98539.95;1806781;78;21057;-74
2021/01/26 04:52:41;;;;;;;13.20;9.10;;;;;;;1.46;78.86;98542.63;1804083;78;21168;-73
2021/01/26 04:55:17;;;;;;;11.10;8.03;;;;;;;1.47;78.53;98531.58;1727822;78;21093;-73
2021/01/26 04:58:16;;;;;;;11.95;8.28;;;;;;;1.47;78.27;98540.26;1803430;78;21167;-74
2021/01/26 05:00:55;;;;;;;11.93;8.25;;;;;;;1.50;77.81;98546.87;1808898;78;21378;-74
2021/01/26 05:04:03;;;;;;;11.68;8.43;;;;;;;1.53;77.57;98566.11;1820583;78;21144;-73
2021/01/26 05:06:35;;;;;;;11.30;7.85;;;;;;;1.54;77.08;98554.02;1803896;78;21114;-74
2021/01/26 05:09:07;;;;;;;11.40;8.08;;;;;;;1.55;76.73;98571.41;1813397;78;21540;-73
2021/01/26 05:11:36;;;;;;;10.98;7.30;;;;;;;1.54;76.90;98576.37;1811110;78;21627;-74
2021/01/26 05:14:14;;;;;;;11.93;7.58;;;;;;;1.53;76.40;98578.73;1813301;78;21338;-72
2021/01/26 05:17:02;;;;;;;11.10;7.62;;;;;;;1.55;76.57;98569.30;1819962;78;21167;-74
2021/01/26 05:19:40;;;;;;;11.53;7.97;;;;;;;1.53;76.24;98581.38;1809788;78;21144;-73
2021/01/26 05:22:32;;;;;;;10.55;7.03;;;;;;;1.56;75.91;98584.83;1818534;78;21187;-73
2021/01/26 05:25:12;;;;;;;9.85;7.12;;;;;;;1.56;75.40;98582.20;1813107;77;21125;-74
2021/01/26 05:27:39;;;;;;;10.75;7.20;;;;;;;1.60;75.49;98600.39;1819284;77;21422;-74
2021/01/26 05:30:11;;;;;;;10.70;7.53;;;;;;;1.63;75.51;98607.00;1838925;77;21088;-75
2021/01/26 05:32:43;;;;;;;10.43;7.33;;;;;;;1.63;75.55;98615.69;1791174;78;21164;-73
2021/01/26 05:35:13;;;;;;;8.23;5.47;;;;;;;1.65;75.41;98608.88;1780715;78;21246;-72
2021/01/26 05:37:41;;;;;;;9.18;6.70;;;;;;;1.66;74.85;98629.41;1795096;78;21103;-74
2021/01/26 05:40:21;;;;;;;10.75;6.65;;;;;;;1.66;75.17;98617.56;1781610;78;21372;-74
2021/01/26 05:43:01;;;;;;;9.33;6.12;;;;;;;1.69;75.01;98642.87;1800797;78;21123;-74
2021/01/26 05:45:44;;;;;;;8.03;5.53;;;;;;;1.69;74.83;98660.50;1820149;77;21148;-74
2021/01/26 05:48:18;;;;;;;8.60;5.47;;;;;;;1.70;73.94;98619.97;1823057;77;21189;-74
2021/01/26 05:50:47;;;;;;;9.75;6.45;;;;;;;1.71;73.60;98659.72;1817434;77;22502;-74
2021/01/26 05:53:28;;;;;;;8.05;5.00;;;;;;;1.70;73.60;98638.39;1817848;77;21371;-73
2021/01/26 05:56:15;;;;;;;8.65;5.47;;;;;;;1.70;73.18;98623.92;1798453;77;21149;-75
2021/01/26 05:58:49;;;;;;;8.08;5.05;;;;;;;1.73;73.06;98632.64;1835873;76;21147;-73
2021/01/26 06:01:28;;;;;;;7.92;5.17;;;;;;;1.75;72.83;98655.58;1843810;76;21139;-74
2021/01/26 06:04:13;;;;;;;8.13;5.12;;;;;;;1.79;73.00;98650.09;1815802;78;21147;-73
2021/01/26 06:06:58;;;;;;;8.00;5.05;;;;;;;1.79;73.11;98655.35;1791583;76;21140;-74
2021/01/26 06:09:36;;;;;;;7.22;4.97;;;;;;;1.79;72.89;98669.83;1806742;78;21207;-75
2021/01/26 06:12:21;;;;;;;7.70;5.03;;;;;;;1.81;72.79;98670.36;1842888;76;21167;-73
2021/01/26 06:15:01;;;;;;;8.03;5.20;;;;;;;1.82;72.83;98670.66;1825142;77;27107;-74
2021/01/26 06:17:33;;;;;;;8.03;4.72;;;;;;;1.81;72.38;98686.16;1803486;77;21552;-73
2021/01/26 06:20:20;;;;;;;7.10;4.87;;;;;;;1.83;72.06;98691.98;1820530;77;21809;-74
2021/01/26 06:22:49;;;;;;;6.45;4.28;;;;;;;1.83;72.08;98695.92;1819994;77;21145;-74
2021/01/26 06:25:23;;;;;;;6.80;4.45;;;;;;;1.86;72.05;98696.23;1820447;78;21191;-73
2021/01/26 06:28:14;;;;;;;6.25;4.28;;;;;;;1.89;71.91;98708.11;1822628;78;21236;-74
2021/01/26 06:31:04;;;;;;;7.00;4.78;;;;;;;1.88;71.66;98711.27;1796416;78;21171;-75
2021/01/26 06:33:59;;;;;;;7.95;4.62;;;;;;;1.90;71.80;98708.38;1813536;77;21815;-74
2021/01/26 06:36:59;;;;;;;6.67;4.35;;;;;;;1.90;71.21;98693.90;1779555;78;21128;-73
2021/01/26 06:40:02;;;;;;;6.92;4.28;;;;;;;1.93;71.28;98707.89;1819308;77;21116;-75
2021/01/26 06:43:00;;;;;;;6.12;3.90;;;;;;;1.95;70.84;98720.83;1822122;77;21108;-74
2021/01/26 06:46:14;;;;;;;6.55;3.80;;;;;;;1.97;70.97;98728.73;1817317;77;21120;-72
2021/01/26 06:49:10;;;;;;;6.53;4.17;;;;;;;2.03;70.15;98728.28;1812577;77;22718;-73
2021/01/26 06:51:58;;;;;;;6.65;4.22;;;;;;;1.99;70.73;98753.52;1765265;79;21199;-73
2021/01/26 06:54:44;;;;;;;6.42;4.35;;;;;;;2.02;70.56;98756.98;1764419;80;21773;-74
2021/01/26 06:57:36;;;;;;;6.22;4.20;;;;;;;2.03;70.66;98754.09;1757835;79;21367;-74
2021/01/26 07:00:36;;;;;;;7.33;4.70;;;;;;;2.05;70.70;98761.23;1754554;80;21140;-73
2021/01/26 07:03:31;;;;;;;6.65;4.10;;;;;;;2.07;70.57;98758.34;1759827;79;21128;-73
2021/01/26 07:06:33;;;;;;;6.25;4.05;;;;;;;2.08;70.67;98762.06;1760988;80;21121;-74
2021/01/26 07:09:27;;;;;;;6.45;4.12;;;;;;;2.11;70.54;98776.06;1757143;79;21172;-73
2021/01/26 07:12:07;;;;;;;7.25;4.33;;;;;;;2.16;70.42;98783.73;1758134;80;21608;-74
2021/01/26 07:14:53;;;;;;;6.45;3.98;;;;;;;2.18;70.06;98779.83;1761258;79;21101;-73
2021/01/26 07:17:47;;;;;;;6.33;3.70;;;;;;;2.22;69.79;98801.99;1769768;80;21061;-74
2021/01/26 07:20:23;;;;;;;7.58;4.62;;;;;;;2.22;70.09;98784.08;1762121;80;21184;-75
2021/01/26 07:23:08;;;;;;;6.65;4.00;;;;;;;2.24;69.98;98801.77;1759892;80;22555;-73
2021/01/26 07:25:59;;;;;;;6.30;3.90;;;;;;;2.24;69.82;98783.33;1660816;84;21188;-72
2021/01/26 07:29:15;;;;;;;7.10;4.00;;;;;;;2.30;69.67;98781.00;1798946;79;23942;-72
2021/01/26 07:31:52;;;;;;;6.37;3.92;;;;;;;2.26;69.85;98808.36;1774845;79;21179;-73
2021/01/26 07:34:42;;;;;;;5.75;3.47;;;;;;;2.26;69.77;98805.72;1771564;80;21633;-73
2021/01/26 07:37:16;;;;;;;7.55;4.45;;;;;;;2.27;69.73;98817.05;1784004;79;21137;-75
2021/01/26 07:40:01;;;;;;;5.55;3.40;;;;;;;2.29;69.79;98818.41;1813129;79;21137;-73
2021/01/26 07:42:34;;;;;;;6.40;3.52;;;;;;;2.30;69.42;98821.34;1803634;77;21158;-74
2021/01/26 07:45:13;;;;;;;5.95;3.80;;;;;;;2.32;69.53;98807.91;1801908;79;21031;-74
2021/01/26 07:47:48;;;;;;;6.37;3.72;;;;;;;2.35;69.26;98827.17;1798969;79;21165;-77
2021/01/26 07:50:36;;;;;;;5.58;3.58;;;;;;;2.38;68.90;98831.95;1757978;80;21599;-72
2021/01/26 07:53:33;;;;;;;5.65;3.45;;;;;;;2.40;69.08;98818.00;1773043;79;21192;-74
2021/01/26 07:56:27;;;;;;;5.60;3.58;;;;;;;2.41;69.11;98832.78;1734941;80;21207;-73
2021/01/26 07:58:55;;;;;;;5.67;3.58;;;;;;;2.44;69.13;98849.42;1763585;80;21138;-73
2021/01/26 08:01:25;;;;;;;5.45;3.40;;;;;;;2.47;69.03;98851.57;1774814;79;21670;-75
2021/01/26 08:03:53;;;;;;;6.12;3.55;;;;;;;2.50;69.10;98857.67;1773109;80;21622;-74
2021/01/26 08:06:42;;;;;;;7.10;3.47;;;;;;;2.53;68.66;98857.19;1761609;80;21098;-73
2021/01/26 08:09:34;;;;;;;5.15;3.15;;;;;;;2.58;68.62;98827.44;1770244;80;21179;-75
2021/01/26 08:12:15;;;;;;;7.85;3.17;;;;;;;2.62;68.56;98850.14;1778380;79;21116;-75
2021/01/26 08:14:51;;;;;;;5.67;3.50;;;;;;;2.64;68.47;98867.31;1806634;78;21340;-74
2021/01/26 08:17:31;;;;;;;5.42;3.20;;;;;;;2.67;68.41;98869.45;1766787;80;21862;-73
2021/01/26 08:20:23;;;;;;;5.28;3.15;;;;;;;2.67;68.20;98876.05;1788734;79;21153;-74
2021/01/26 08:23:05;;;;;;;5.50;3.02;;;;;;;2.67;68.15;98893.19;1763498;79;21200;-75
2021/01/26 08:25:40;;;;;;;5.37;3.25;;;;;;;2.67;68.26;98827.28;1761630;80;21092;-74
2021/01/26 08:28:31;;;;;;;5.55;2.98;;;;;;;2.68;68.31;98907.95;1765722;80;21221;-73
2021/01/26 08:31:01;;;;;;;5.33;3.10;;;;;;;2.67;68.14;98916.91;1749476;82;21659;-74
2021/01/26 08:33:32;;;;;;;4.90;3.05;;;;;;;2.69;68.25;98915.33;1769547;79;21129;-75
2021/01/26 08:36:16;;;;;;;4.58;2.98;;;;;;;2.68;68.00;98919.81;1767540;79;21180;-74
2021/01/26 08:38:54;;;;;;;4.62;2.75;;;;;;;2.66;67.86;98918.45;1777537;79;21631;-74
2021/01/26 08:41:47;;;;;;;4.92;2.72;;;;;;;2.65;68.00;98902.38;1768509;79;21370;-74
2021/01/26 08:44:25;;;;;;;;;;;;;;;2.64;68.01;98939.02;1730319;79;21188;-74
2021/01/26 08:46:53;;;;;;;6.62;2.90;;;;;;;2.61;68.07;98942.92;1790967;79;20233;-73
2021/01/26 08:49:33;;;;;;;5.08;3.15;;;;;;;2.59;68.19;98944.99;1779276;79;21123;-75
2021/01/26 08:52:25;;;;;;;4.83;2.42;;;;;;;2.56;68.25;98947.59;1771012;79;21196;-74
2021/01/26 08:54:53;;;;;;;4.33;2.60;;;;;;;2.54;67.83;98954.17;1785156;79;21226;-76
2021/01/26 08:57:35;;;;;;;4.75;2.92;;;;;;;2.50;68.11;98942.00;1781875;79;21211;-74
2021/01/26 09:00:37;;;;;;;3.90;2.40;;;;;;;2.49;67.80;98950.13;1785460;79;21213;-74
2021/01/26 09:03:33;;;;;;;4.03;2.43;;;;;;;2.48;68.02;98951.19;1793146;78;21949;-78
2021/01/26 09:06:15;;;;;;;4.67;2.57;;;;;;;2.51;67.94;98941.48;1824653;77;22790;-72
2021/01/26 09:08:45;;;;;;;4.95;2.42;;;;;;;2.45;67.79;98960.89;1800805;79;21630;-74
2021/01/26 09:11:34;;;;;;;3.80;2.27;;;;;;;2.42;67.71;98974.55;1801091;78;21342;-73
2021/01/26 09:14:27;;;;;;;3.52;2.25;;;;;;;2.42;67.66;98982.45;1805754;78;21235;-73
2021/01/26 09:17:15;;;;;;;3.85;2.33;;;;;;;2.41;67.70;98997.47;1802707;79;21158;-75
2021/01/26 09:19:51;;;;;;;5.83;2.10;;;;;;;2.43;67.89;98997.22;1794181;79;21179;-74
2021/01/26 09:22:29;;;;;;;3.83;2.15;;;;;;;2.43;67.53;98980.88;1805277;78;21129;-74
2021/01/26 09:25:03;;;;;;;3.77;2.20;;;;;;;2.42;67.41;99004.85;1801153;78;22546;-76
2021/01/26 09:27:41;;;;;;;4.23;2.20;;;;;;;2.46;67.34;98992.26;1835019;77;23337;-74
2021/01/26 09:30:21;;;;;;;4.25;2.00;;;;;;;2.39;67.41;99006.12;1800510;79;21125;-75
2021/01/26 09:33:09;;;;;;;3.80;2.42;;;;;;;2.41;67.63;99000.63;1785014;79;21366;-75
2021/01/26 09:35:47;;;;;;;4.75;2.83;;;;;;;2.42;67.50;99005.64;1790701;79;21180;-76
2021/01/26 09:38:37;;;;;;;4.87;2.67;;;;;;;2.39;67.46;98995.59;1784565;79;21147;-78
2021/01/26 09:41:25;;;;;;;4.50;2.45;;;;;;;2.40;67.48;99022.20;1796466;79;21566;-75
2021/01/26 09:44:04;;;;;;;5.42;2.12;;;;;;;2.40;67.49;99021.41;1792457;79;21625;-73
2021/01/26 09:46:39;;;;;;;4.45;2.40;;;;;;;2.38;67.75;99022.98;1790792;79;21332;-73
2021/01/26 09:49:25;;;;;;;4.37;2.27;;;;;;;2.41;67.92;99036.20;1778441;79;21155;-74
2021/01/26 09:52:08;;;;;;;3.95;2.60;;;;;;;2.38;67.62;99020.34;1799536;79;21195;-74
2021/01/26 09:54:41;;;;;;;3.90;2.40;;;;;;;2.38;68.00;99015.08;1786068;79;21159;-74
2021/01/26 09:57:15;;;;;;;4.22;2.60;;;;;;;2.42;68.00;99034.63;1784435;79;21103;-74
2021/01/26 09:59:45;;;;;;;3.98;2.60;;;;;;;2.46;67.87;99012.55;1793478;79;21574;-74
2021/01/26 10:02:14;;;;;;;3.70;2.20;;;;;;;2.48;67.84;99032.36;1789265;79;21140;-73
2021/01/26 10:04:43;;;;;;;4.28;2.62;;;;;;;2.49;67.79;99055.02;1792052;79;21151;-73
2021/01/26 10:07:14;;;;;;;4.22;2.30;;;;;;;2.47;67.60;99029.94;1768024;79;21247;-73
2021/01/26 10:09:42;;;;;;;4.40;2.50;;;;;;;2.46;67.80;99032.31;1789772;79;21182;-75
2021/01/26 10:12:28;;;;;;;4.12;2.40;;;;;;;2.51;67.93;99039.78;1785641;79;21819;-75
2021/01/26 10:15:12;;;;;;;3.75;2.02;;;;;;;2.54;67.69;99038.51;1789515;79;21586;-73
2021/01/26 10:17:56;;;;;;;4.40;2.20;;;;;;;2.57;67.49;99038.82;1787734;79;21143;-73
2021/01/26 10:20:35;;;;;;;4.15;2.50;;;;;;;2.61;67.34;99069.97;1784248;79;21099;-73
2021/01/26 10:23:07;;;;;;;3.72;2.30;;;;;;;2.59;67.15;99055.70;1794103;79;21167;-73
2021/01/26 10:25:36;;;;;;;4.35;2.33;;;;;;;2.61;67.16;99035.18;1798812;79;22137;-73
2021/01/26 10:28:24;;;;;;;5.80;2.45;;;;;;;2.62;66.62;99069.72;1799817;79;21116;-72
2021/01/26 10:30:55;;;;;;;4.30;2.50;;;;;;;2.64;66.85;99031.27;1778908;79;21203;-75
2021/01/26 10:33:38;;;;;;;4.10;2.60;;;;;;;2.67;66.98;99069.80;1786600;79;21103;-74
2021/01/26 10:36:32;;;;;;;3.98;2.37;;;;;;;2.70;66.86;99074.59;1793546;78;21155;-74
2021/01/26 10:39:23;;;;;;;4.03;2.12;;;;;;;2.75;66.77;99074.66;1789479;79;21388;-75
2021/01/26 10:42:05;;;;;;;4.55;2.50;;;;;;;2.78;66.09;99088.67;1796635;79;21172;-74
2021/01/26 10:44:33;;;;;;;4.05;2.35;;;;;;;2.74;66.10;99059.09;1776629;79;21191;-75
2021/01/26 10:47:01;;;;;;;4.53;2.77;;;;;;;2.71;66.06;99083.30;1781557;79;21136;-75
2021/01/26 10:49:31;;;;;;;3.77;2.47;;;;;;;2.71;66.27;99096.48;1760780;79;21046;-74
2021/01/26 10:52:00;;;;;;;4.40;2.60;;;;;;;2.70;66.17;99083.83;1779167;79;21302;-72
2021/01/26 10:54:28;;;;;;;4.25;2.40;;;;;;;2.74;66.43;99077.55;1787924;79;21075;-73
2021/01/26 10:56:56;;;;;;;3.85;2.40;;;;;;;2.77;66.23;99084.97;1787525;79;21147;-74
2021/01/26 10:59:23;;;;;;;3.75;2.12;;;;;;;2.77;65.98;99109.50;1794996;79;21134;-75
2021/01/26 11:01:52;;;;;;;3.98;2.20;;;;;;;2.77;65.91;99113.98;1798394;79;21159;-74
2021/01/26 11:04:21;;;;;;;4.00;2.42;;;;;;;2.77;65.64;99132.44;1786179;79;21363;-74
2021/01/26 11:06:51;;;;;;;4.22;2.50;;;;;;;2.74;65.77;99117.89;1778739;79;21115;-74
2021/01/26 11:09:18;;;;;;;5.00;2.72;;;;;;;2.74;65.66;99115.78;1810848;78;21571;-73
2021/01/26 11:11:46;;;;;;;3.98;2.65;;;;;;;2.77;65.95;99113.98;1801832;79;21614;-74
2021/01/26 11:14:16;;;;;;;3.35;2.10;;;;;;;2.82;65.98;99116.67;1791901;79;21187;-74
2021/01/26 11:16:44;;;;;;;3.87;2.10;;;;;;;2.86;65.71;99116.98;1802573;79;21155;-74
2021/01/26 11:19:15;;;;;;;4.08;2.45;;;;;;;2.86;65.48;99136.23;1797205;79;21230;-73
2021/01/26 11:21:43;;;;;;;4.33;2.35;;;;;;;2.88;65.27;99118.34;1787108;79;21150;-74
2021/01/26 11:24:11;;;;;;;4.30;2.35;;;;;;;2.86;64.75;99163.93;1797191;79;21127;-75
2021/01/26 11:26:39;;;;;;;3.77;2.52;;;;;;;2.81;64.83;99153.31;1793974;79;21501;-74
2021/01/26 11:29:06;;;;;;;4.83;2.60;;;;;;;2.80;65.13;99148.57;1798036;79;21455;-73
2021/01/26 11:31:34;;;;;;;3.67;2.40;;;;;;;2.80;65.18;99141.98;1791525;79;21194;-74
2021/01/26 11:34:03;;;;;;;4.75;2.30;;;;;;;2.82;64.88;99140.41;1792946;79;21084;-74
2021/01/26 11:36:31;;;;;;;3.58;2.25;;;;;;;2.85;64.81;99141.24;1801836;79;21033;-72
2021/01/26 11:39:00;;;;;;;4.55;2.30;;;;;;;2.84;64.73;99148.89;1790815;79;21597;-74
2021/01/26 11:41:27;;;;;;;3.45;2.15;;;;;;;2.84;64.91;99163.91;1791495;77;21867;-73
2021/01/26 11:43:55;;;;;;;4.08;2.50;;;;;;;2.80;65.15;99147.25;1786484;79;21178;-73
2021/01/26 11:46:23;;;;;;;4.28;2.50;;;;;;;2.77;64.94;99162.23;1803063;78;21156;-72
2021/01/26 11:48:51;;;;;;;3.60;2.20;;;;;;;2.76;64.76;99162.45;1773236;79;21218;-75
2021/01/26 11:51:19;;;;;;;2.90;1.90;;;;;;;2.70;64.83;99175.27;1793799;79;21328;-73
2021/01/26 11:53:47;;;;;;;3.02;2.00;;;;;;;2.65;65.03;99191.02;1802493;79;21357;-76
2021/01/26 11:56:15;;;;;;;4.30;2.50;;;;;;;2.65;65.19;99193.13;1793084;79;21115;-73
2021/01/26 11:58:43;;;;;;;4.00;2.15;;;;;;;2.59;65.11;99192.24;1788328;79;21166;-74
2021/01/26 12:01:11;;;;;;;3.87;2.30;;;;;;;2.58;65.38;99146.36;1791378;77;21143;-73
2021/01/26 12:03:38;;;;;;;4.12;2.10;;;;;;;2.57;64.85;99179.05;1788270;79;21040;-73
2021/01/26 12:06:07;;;;;;;3.37;1.95;;;;;;;2.55;65.02;99187.17;1791811;79;21361;-73
2021/01/26 12:08:35;;;;;;;4.03;2.33;;;;;;;2.56;64.83;99167.67;1812786;79;21128;-74
2021/01/26 12:11:03;;;;;;;3.87;2.40;;;;;;;2.56;65.00;99180.85;1804242;79;21617;-75
2021/01/26 12:13:32;;;;;;;4.30;2.40;;;;;;;2.56;65.03;99191.39;1791650;79;21541;-75
2021/01/26 12:16:05;;;;;;;4.03;2.20;;;;;;;2.59;65.23;99216.48;1794602;79;21634;-74
2021/01/26 12:18:33;;;;;;;3.87;2.30;;;;;;;2.61;65.27;99192.02;1800969;79;21734;-74
2021/01/26 12:21:03;;;;;;;3.35;2.08;;;;;;;2.61;65.08;99215.74;1801759;79;21602;-75
2021/01/26 12:23:34;;;;;;;6.20;2.42;;;;;;;2.59;65.34;99232.30;1813186;78;21557;-74
2021/01/26 12:26:03;;;;;;;4.62;2.10;;;;;;;2.57;65.21;99237.83;1801423;77;21829;-75
2021/01/26 12:28:31;;;;;;;4.28;2.22;;;;;;;2.55;65.47;99229.87;1800528;79;21249;-74
2021/01/26 12:30:59;;;;;;;3.90;2.27;;;;;;;2.54;65.46;99238.82;1803944;79;21385;-75
2021/01/26 12:33:27;;;;;;;3.80;2.17;;;;;;;2.56;65.48;99255.18;1789743;79;21127;-75